Time;durP1;ratioP1;P1;durP2;ratioP2;P2;SDS_P1;SDS_P2;PMS_P1;PMS_P2;Temp;Humidity;BMP_temperature;BMP_pressure;BME280_temperature;BME280_humidity;BME280_pressure;Samples;Min_cycle;Max_cycle;Signal;HPM_P1;HPM_P2
2023/06/12 00:01:41;;;;;;;0.85;0.52;;;;;;;;;;5033922;28;20057;-77
2023/06/12 00:04:07;;;;;;;0.40;0.22;;;;;;;;;;5036118;28;20092;-77
2023/06/12 00:06:38;;;;;;;0.35;0.35;;;;;;;;;;5049028;28;20057;-77
2023/06/12 00:09:05;;;;;;;0.35;0.35;;;;;;;;;;5036521;28;20049;-78
2023/06/12 00:11:32;;;;;;;0.20;0.20;;;;;;;;;;5026444;28;20058;-77
2023/06/12 00:13:58;;;;;;;0.20;0.20;;;;;;;;;;5035674;28;20736;-78
2023/06/12 00:16:25;;;;;;;0.30;0.30;;;;;;;;;;5028879;28;20560;-78
2023/06/12 00:18:52;;;;;;;0.10;0.10;;;;;;;;;;5024400;28;20057;-77
2023/06/12 00:21:23;;;;;;;0.22;0.22;;;;;;;;;;5023912;28;20135;-78
2023/06/12 00:23:49;;;;;;;0.40;0.20;;;;;;;;;;5025209;28;20057;-78
2023/06/12 00:26:16;;;;;;;0.25;0.25;;;;;;;;;;5023389;28;20134;-78
2023/06/12 00:28:42;;;;;;;0.10;0.10;;;;;;;;;;5022913;28;20543;-78
2023/06/12 00:31:09;;;;;;;0.45;0.43;;;;;;;;;;5021898;28;20054;-78
2023/06/12 00:33:36;;;;;;;0.20;0.20;;;;;;;;;;5025357;28;20054;-78
2023/06/12 00:36:03;;;;;;;0.30;0.20;;;;;;;;;;5036495;28;20493;-77
2023/06/12 00:38:30;;;;;;;0.60;0.55;;;;;;;;;;5033790;28;20120;-78
2023/06/12 00:40:56;;;;;;;0.77;0.38;;;;;;;;;;5034816;28;20124;-78
2023/06/12 00:43:22;;;;;;;0.20;0.20;;;;;;;;;;5034219;28;20338;-78
2023/06/12 00:45:50;;;;;;;0.20;0.20;;;;;;;;;;5029879;28;20058;-78
2023/06/12 00:48:17;;;;;;;0.22;0.20;;;;;;;;;;5030113;28;20054;-78
2023/06/12 00:50:45;;;;;;;0.32;0.32;;;;;;;;;;5029243;28;20050;-78
2023/06/12 00:53:11;;;;;;;0.10;0.10;;;;;;;;;;5030397;28;20037;-78
2023/06/12 00:55:38;;;;;;;0.20;0.20;;;;;;;;;;5026826;28;20621;-77
2023/06/12 00:58:05;;;;;;;0.30;0.28;;;;;;;;;;5024378;28;20046;-78
2023/06/12 01:00:31;;;;;;;0.20;0.20;;;;;;;;;;5023609;28;20465;-78
2023/06/12 01:03:04;;;;;;;0.20;0.20;;;;;;;;;;5023094;28;20058;-78
2023/06/12 01:05:36;;;;;;;0.73;0.35;;;;;;;;;;5024196;28;20061;-79
2023/06/12 01:08:27;;;;;;;0.10;0.10;;;;;;;;;;5023336;28;20543;-77
2023/06/12 01:10:56;;;;;;;0.20;0.20;;;;;;;;;;5014089;28;20089;-79
2023/06/12 01:13:23;;;;;;;0.50;0.50;;;;;;;;;;5027341;28;20042;-78
2023/06/12 01:15:50;;;;;;;0.32;0.32;;;;;;;;;;5027176;28;20058;-77
2023/06/12 01:18:21;;;;;;;0.20;0.20;;;;;;;;;;5026181;28;20559;-76
2023/06/12 01:20:49;;;;;;;0.35;0.20;;;;;;;;;;5024627;28;20542;-77
2023/06/12 01:23:15;;;;;;;0.10;0.10;;;;;;;;;;5025054;28;20050;-76
2023/06/12 01:25:45;;;;;;;0.20;0.20;;;;;;;;;;5025230;28;20046;-76
2023/06/12 01:28:33;;;;;;;0.10;0.10;;;;;;;;;;5026820;28;20405;-77
2023/06/12 01:31:08;;;;;;;0.38;0.20;;;;;;;;;;5007436;28;20053;-77
2023/06/12 01:33:37;;;;;;;0.20;0.20;;;;;;;;;;5024573;28;20057;-77
2023/06/12 01:36:05;;;;;;;0.10;0.10;;;;;;;;;;5025863;28;20057;-78
2023/06/12 01:38:33;;;;;;;0.10;0.10;;;;;;;;;;5023191;28;20803;-77
2023/06/12 01:41:00;;;;;;;1.27;0.75;;;;;;;;;;5020790;28;20638;-77
2023/06/12 01:43:26;;;;;;;0.10;0.10;;;;;;;;;;5028932;28;20218;-77
2023/06/12 01:45:53;;;;;;;0.47;0.43;;;;;;;;;;5033982;28;20042;-77
2023/06/12 01:48:19;;;;;;;0.15;0.15;;;;;;;;;;5034566;28;20037;-77
2023/06/12 01:50:46;;;;;;;0.10;0.10;;;;;;;;;;5033313;28;20085;-77
2023/06/12 01:53:15;;;;;;;0.55;0.45;;;;;;;;;;5033398;28;20046;-77
2023/06/12 01:55:42;;;;;;;0.10;0.10;;;;;;;;;;5033422;28;20058;-78
2023/06/12 01:58:09;;;;;;;0.25;0.22;;;;;;;;;;5031534;28;20050;-76
2023/06/12 02:00:35;;;;;;;0.63;0.28;;;;;;;;;;5032092;28;20116;-76
2023/06/12 02:03:02;;;;;;;0.20;0.20;;;;;;;;;;5028978;28;20054;-78
2023/06/12 02:05:29;;;;;;;0.10;0.10;;;;;;;;;;5022950;28;20065;-77
2023/06/12 02:07:55;;;;;;;0.30;0.30;;;;;;;;;;5023007;28;20506;-78
2023/06/12 02:10:22;;;;;;;0.25;0.25;;;;;;;;;;5022565;28;20061;-78
2023/06/12 02:12:48;;;;;;;0.20;0.20;;;;;;;;;;5023352;28;20050;-78
2023/06/12 02:15:15;;;;;;;0.17;0.17;;;;;;;;;;5023503;28;20086;-77
2023/06/12 02:17:41;;;;;;;0.30;0.30;;;;;;;;;;5031639;28;20058;-76
2023/06/12 02:20:09;;;;;;;0.28;0.25;;;;;;;;;;5029382;28;20046;-78
2023/06/12 02:22:36;;;;;;;0.15;0.15;;;;;;;;;;5047153;28;20082;-77
2023/06/12 02:25:03;;;;;;;0.47;0.38;;;;;;;;;;5032837;28;20908;-77
2023/06/12 02:27:29;;;;;;;0.20;0.20;;;;;;;;;;5032468;28;20501;-77
2023/06/12 02:29:56;;;;;;;0.10;0.10;;;;;;;;;;5048374;28;20096;-76
2023/06/12 02:32:22;;;;;;;0.77;0.30;;;;;;;;;;5033122;28;20089;-77
2023/06/12 02:34:49;;;;;;;1.65;0.45;;;;;;;;;;5028606;28;20504;-77
2023/06/12 02:37:16;;;;;;;0.60;0.38;;;;;;;;;;5029813;28;20063;-77
2023/06/12 02:39:43;;;;;;;0.30;0.30;;;;;;;;;;5032069;28;20053;-77
2023/06/12 02:42:10;;;;;;;0.38;0.30;;;;;;;;;;5032399;28;20064;-77
2023/06/12 02:44:36;;;;;;;0.10;0.10;;;;;;;;;;5031536;28;20046;-77
2023/06/12 02:47:03;;;;;;;0.60;0.35;;;;;;;;;;5033363;28;20921;-76
2023/06/12 02:49:30;;;;;;;0.22;0.20;;;;;;;;;;5033459;28;20049;-77
2023/06/12 02:51:56;;;;;;;0.10;0.10;;;;;;;;;;5038574;28;20052;-76
2023/06/12 02:54:24;;;;;;;0.10;0.10;;;;;;;;;;5038368;28;20058;-77
2023/06/12 02:56:52;;;;;;;0.10;0.10;;;;;;;;;;5049210;28;20450;-77
2023/06/12 02:59:19;;;;;;;0.10;0.10;;;;;;;;;;5049331;28;20061;-77
2023/06/12 03:01:46;;;;;;;0.13;0.13;;;;;;;;;;5035900;28;20570;-77
2023/06/12 03:04:19;;;;;;;0.10;0.10;;;;;;;;;;5037503;28;20041;-77
2023/06/12 03:06:47;;;;;;;0.20;0.20;;;;;;;;;;5029190;28;20074;-78
2023/06/12 03:09:15;;;;;;;0.20;0.20;;;;;;;;;;5020561;28;20152;-77
2023/06/12 03:11:45;;;;;;;0.60;0.45;;;;;;;;;;5023808;28;20579;-77
2023/06/12 03:14:14;;;;;;;0.43;0.30;;;;;;;;;;5037325;28;20919;-77
2023/06/12 03:16:41;;;;;;;;;;;;;;;;;;5036518;28;20077;-76
2023/06/12 03:19:08;;;;;;;0.30;0.30;;;;;;;;;;5032328;28;43415;-77
2023/06/12 03:21:37;;;;;;;0.20;0.20;;;;;;;;;;5034557;28;20096;-76
2023/06/12 03:24:03;;;;;;;0.20;0.20;;;;;;;;;;5035905;28;20069;-77
2023/06/12 03:26:31;;;;;;;0.30;0.20;;;;;;;;;;5035507;28;20061;-77
2023/06/12 03:28:58;;;;;;;0.25;0.25;;;;;;;;;;5034316;28;20520;-77
2023/06/12 03:31:26;;;;;;;0.10;0.10;;;;;;;;;;5051971;28;20050;-78
2023/06/12 03:33:56;;;;;;;0.20;0.20;;;;;;;;;;5049563;28;20046;-76
2023/06/12 03:36:25;;;;;;;0.10;0.10;;;;;;;;;;5035968;28;20056;-76
2023/06/12 03:38:52;;;;;;;0.20;0.20;;;;;;;;;;5035083;28;20146;-76
2023/06/12 03:41:20;;;;;;;0.10;0.10;;;;;;;;;;5035098;28;20054;-77
2023/06/12 03:43:46;;;;;;;0.35;0.32;;;;;;;;;;5031642;28;20054;-77
2023/06/12 03:46:13;;;;;;;0.43;0.40;;;;;;;;;;5038338;28;20049;-77
2023/06/12 03:48:39;;;;;;;0.20;0.20;;;;;;;;;;5037217;28;20138;-77
2023/06/12 03:51:06;;;;;;;0.35;0.32;;;;;;;;;;5036781;28;20058;-77
2023/06/12 03:53:33;;;;;;;0.20;0.20;;;;;;;;;;5035004;28;20050;-77
2023/06/12 03:55:59;;;;;;;0.20;0.20;;;;;;;;;;5032245;28;20113;-77
2023/06/12 03:58:26;;;;;;;0.20;0.20;;;;;;;;;;5012953;28;20038;-77
2023/06/12 04:00:52;;;;;;;0.47;0.38;;;;;;;;;;5025723;28;20292;-76
2023/06/12 04:03:21;;;;;;;0.30;0.30;;;;;;;;;;5034202;28;20642;-76
2023/06/12 04:05:48;;;;;;;0.10;0.10;;;;;;;;;;5036365;28;20184;-77
2023/06/12 04:08:14;;;;;;;0.20;0.20;;;;;;;;;;5035692;28;20058;-77
2023/06/12 04:10:42;;;;;;;0.90;0.90;;;;;;;;;;5035430;28;20054;-76
2023/06/12 04:13:08;;;;;;;0.20;0.20;;;;;;;;;;5034383;28;21035;-76
2023/06/12 04:15:37;;;;;;;0.15;0.15;;;;;;;;;;5026455;28;20061;-77
2023/06/12 04:18:04;;;;;;;0.40;0.25;;;;;;;;;;5023659;28;20150;-77
2023/06/12 04:20:32;;;;;;;0.32;0.32;;;;;;;;;;5024701;28;20172;-76
2023/06/12 04:23:04;;;;;;;0.20;0.20;;;;;;;;;;5021313;28;20073;-77
2023/06/12 04:25:31;;;;;;;0.28;0.20;;;;;;;;;;5024323;28;20072;-78
2023/06/12 04:27:58;;;;;;;0.40;0.35;;;;;;;;;;5025971;28;20058;-78
2023/06/12 04:30:25;;;;;;;0.75;0.43;;;;;;;;;;5039574;28;20061;-79
2023/06/12 04:32:56;;;;;;;0.10;0.10;;;;;;;;;;5022492;28;20080;-76
2023/06/12 04:35:23;;;;;;;0.20;0.20;;;;;;;;;;5024320;28;20054;-77
2023/06/12 04:37:52;;;;;;;0.47;0.30;;;;;;;;;;5024351;28;20604;-76
2023/06/12 04:40:20;;;;;;;0.50;0.47;;;;;;;;;;5024866;28;20621;-76
2023/06/12 04:42:46;;;;;;;0.47;0.47;;;;;;;;;;5025020;28;20053;-76
2023/06/12 04:45:14;;;;;;;0.32;0.20;;;;;;;;;;5024297;28;20603;-77
2023/06/12 04:47:41;;;;;;;0.30;0.30;;;;;;;;;;5023528;28;20509;-77
2023/06/12 04:50:11;;;;;;;0.22;0.20;;;;;;;;;;5024937;28;20476;-76
2023/06/12 04:52:39;;;;;;;0.20;0.20;;;;;;;;;;5023728;28;21030;-75
2023/06/12 04:55:08;;;;;;;3.10;0.63;;;;;;;;;;5022521;28;20076;-77
2023/06/12 04:57:39;;;;;;;0.10;0.10;;;;;;;;;;5023717;28;20076;-76
2023/06/12 05:00:06;;;;;;;0.20;0.20;;;;;;;;;;5023335;28;20501;-76
2023/06/12 05:02:33;;;;;;;0.20;0.20;;;;;;;;;;5023816;28;20050;-76
2023/06/12 05:05:00;;;;;;;0.10;0.10;;;;;;;;;;5023518;28;20050;-78
2023/06/12 05:07:27;;;;;;;0.10;0.10;;;;;;;;;;5034051;28;20102;-76
2023/06/12 05:09:54;;;;;;;0.20;0.20;;;;;;;;;;5022286;28;20065;-77
2023/06/12 05:12:21;;;;;;;0.10;0.10;;;;;;;;;;5023632;28;20500;-79
2023/06/12 05:14:47;;;;;;;0.43;0.30;;;;;;;;;;5023674;28;20111;-77
2023/06/12 05:17:14;;;;;;;0.28;0.25;;;;;;;;;;5022251;28;20053;-77
2023/06/12 05:19:41;;;;;;;0.10;0.10;;;;;;;;;;5021144;28;20147;-76
2023/06/12 05:22:08;;;;;;;0.40;0.22;;;;;;;;;;5022079;28;20065;-76
2023/06/12 05:24:34;;;;;;;0.10;0.10;;;;;;;;;;5013904;28;20051;-76
2023/06/12 05:27:01;;;;;;;0.10;0.10;;;;;;;;;;5004545;28;20061;-74
2023/06/12 05:29:27;;;;;;;4.78;0.50;;;;;;;;;;5008296;28;20049;-75
2023/06/12 05:31:54;;;;;;;0.10;0.10;;;;;;;;;;5009409;28;20543;-76
2023/06/12 05:34:20;;;;;;;0.30;0.30;;;;;;;;;;5022360;28;20053;-77
2023/06/12 05:36:47;;;;;;;0.10;0.10;;;;;;;;;;5020930;28;20148;-77
2023/06/12 05:39:13;;;;;;;0.43;0.43;;;;;;;;;;5022241;28;20050;-76
2023/06/12 05:41:41;;;;;;;1.08;0.57;;;;;;;;;;5022344;28;20578;-76
2023/06/12 05:44:09;;;;;;;0.35;0.30;;;;;;;;;;5022052;28;20080;-77
2023/06/12 05:46:35;;;;;;;0.60;0.50;;;;;;;;;;5020628;28;20101;-77
2023/06/12 05:49:03;;;;;;;0.20;0.20;;;;;;;;;;5015638;28;20113;-75
2023/06/12 05:51:29;;;;;;;0.52;0.30;;;;;;;;;;5006256;28;20599;-76
2023/06/12 05:53:56;;;;;;;0.68;0.38;;;;;;;;;;5021802;28;20057;-76
2023/06/12 05:56:23;;;;;;;0.73;0.40;;;;;;;;;;5012411;28;20137;-77
2023/06/12 05:58:50;;;;;;;1.30;1.20;;;;;;;;;;5021924;28;20050;-77
2023/06/12 06:01:22;;;;;;;0.30;0.30;;;;;;;;;;5011713;28;20060;-77
2023/06/12 06:03:48;;;;;;;0.70;0.30;;;;;;;;;;5019872;28;20054;-77
2023/06/12 06:06:15;;;;;;;0.38;0.35;;;;;;;;;;5012533;28;20081;-77
2023/06/12 06:08:42;;;;;;;0.95;0.50;;;;;;;;;;5004760;28;20063;-77
2023/06/12 06:11:09;;;;;;;0.88;0.52;;;;;;;;;;5008956;28;20116;-78
2023/06/12 06:13:35;;;;;;;0.47;0.30;;;;;;;;;;5019170;28;20062;-76
2023/06/12 06:16:02;;;;;;;0.25;0.25;;;;;;;;;;5021161;28;20567;-77
2023/06/12 06:18:29;;;;;;;0.43;0.20;;;;;;;;;;5019750;28;20054;-78
2023/06/12 06:20:55;;;;;;;0.30;0.30;;;;;;;;;;5022081;28;20061;-77
2023/06/12 06:23:22;;;;;;;0.20;0.20;;;;;;;;;;5019449;28;20112;-77
2023/06/12 06:25:53;;;;;;;0.43;0.40;;;;;;;;;;5025882;28;20185;-77
2023/06/12 06:28:19;;;;;;;0.25;0.25;;;;;;;;;;5023282;28;20518;-76
2023/06/12 06:30:46;;;;;;;0.88;0.52;;;;;;;;;;5024267;28;20078;-77
2023/06/12 06:33:12;;;;;;;2.08;1.20;;;;;;;;;;5024178;28;20054;-77
2023/06/12 06:35:39;;;;;;;1.00;0.60;;;;;;;;;;5025819;28;20134;-77
2023/06/12 06:38:05;;;;;;;0.38;0.35;;;;;;;;;;5025456;28;20069;-77
2023/06/12 06:40:32;;;;;;;0.63;0.40;;;;;;;;;;5024551;28;20122;-77
2023/06/12 06:42:58;;;;;;;0.57;0.38;;;;;;;;;;5025903;28;20497;-78
2023/06/12 06:45:24;;;;;;;0.20;0.20;;;;;;;;;;5026301;28;20089;-78
2023/06/12 06:47:51;;;;;;;0.65;0.40;;;;;;;;;;5026090;28;20110;-77
2023/06/12 06:50:18;;;;;;;1.08;0.60;;;;;;;;;;5026300;28;20656;-76
2023/06/12 06:52:44;;;;;;;0.40;0.40;;;;;;;;;;5019062;28;20529;-76
2023/06/12 06:55:11;;;;;;;0.90;0.50;;;;;;;;;;5023092;28;20133;-76
2023/06/12 06:57:38;;;;;;;1.00;0.50;;;;;;;;;;5024366;28;20061;-77
2023/06/12 07:00:06;;;;;;;0.80;0.50;;;;;;;;;;5023769;28;20156;-76
2023/06/12 07:02:32;;;;;;;1.90;0.75;;;;;;;;;;5024112;28;20065;-76
2023/06/12 07:04:59;;;;;;;0.63;0.52;;;;;;;;;;5023968;28;20113;-76
2023/06/12 07:07:25;;;;;;;1.52;0.90;;;;;;;;;;5024563;28;20381;-76
2023/06/12 07:09:52;;;;;;;1.23;0.70;;;;;;;;;;5024569;28;20049;-77
2023/06/12 07:12:19;;;;;;;0.65;0.47;;;;;;;;;;5023012;28;20149;-76
2023/06/12 07:14:45;;;;;;;2.60;0.77;;;;;;;;;;5024267;28;20148;-76
2023/06/12 07:17:12;;;;;;;0.73;0.47;;;;;;;;;;5024134;28;20491;-76
2023/06/12 07:19:38;;;;;;;0.38;0.35;;;;;;;;;;5024741;28;20543;-76
2023/06/12 07:22:05;;;;;;;0.30;0.30;;;;;;;;;;5022703;28;20050;-76
2023/06/12 07:24:32;;;;;;;0.93;0.50;;;;;;;;;;5022963;28;20340;-76
2023/06/12 07:26:59;;;;;;;1.80;1.15;;;;;;;;;;5036375;28;20145;-76
2023/06/12 07:29:27;;;;;;;1.00;0.77;;;;;;;;;;5035618;28;20242;-76
2023/06/12 07:31:53;;;;;;;1.77;0.90;;;;;;;;;;5019240;28;20084;-76
2023/06/12 07:34:20;;;;;;;1.48;0.30;;;;;;;;;;5023453;28;20090;-76
2023/06/12 07:36:46;;;;;;;0.30;0.30;;;;;;;;;;5023033;28;20046;-76
2023/06/12 07:39:13;;;;;;;0.43;0.30;;;;;;;;;;5022186;28;20137;-76
2023/06/12 07:41:42;;;;;;;0.55;0.50;;;;;;;;;;5019003;28;20436;-76
2023/06/12 07:44:10;;;;;;;1.15;0.60;;;;;;;;;;5021746;28;20053;-76
2023/06/12 07:46:37;;;;;;;1.10;0.68;;;;;;;;;;5013006;28;20835;-76
2023/06/12 07:49:03;;;;;;;0.30;0.30;;;;;;;;;;5022517;28;20571;-77
2023/06/12 07:51:30;;;;;;;0.35;0.35;;;;;;;;;;5024148;28;20610;-76
2023/06/12 07:53:56;;;;;;;0.57;0.50;;;;;;;;;;5022547;28;20116;-76
2023/06/12 07:56:24;;;;;;;1.33;0.65;;;;;;;;;;5022996;28;20081;-77
2023/06/12 07:58:51;;;;;;;0.40;0.40;;;;;;;;;;5024577;28;20111;-77
2023/06/12 08:01:18;;;;;;;0.95;0.60;;;;;;;;;;5022128;28;20498;-76
2023/06/12 08:03:45;;;;;;;1.20;0.60;;;;;;;;;;5021595;28;20053;-76
2023/06/12 08:06:13;;;;;;;1.10;0.50;;;;;;;;;;5012602;28;20133;-76
2023/06/12 08:08:43;;;;;;;0.80;0.80;;;;;;;;;;5023132;28;20086;-76
2023/06/12 08:11:10;;;;;;;1.23;0.63;;;;;;;;;;5023990;28;20583;-76
2023/06/12 08:13:37;;;;;;;1.25;0.70;;;;;;;;;;5021614;28;20054;-76
2023/06/12 08:16:04;;;;;;;0.55;0.50;;;;;;;;;;5022515;28;20053;-76
2023/06/12 08:18:30;;;;;;;0.32;0.32;;;;;;;;;;5019493;28;20050;-76
2023/06/12 08:20:57;;;;;;;0.55;0.45;;;;;;;;;;5021120;28;20148;-76
2023/06/12 08:23:24;;;;;;;0.82;0.52;;;;;;;;;;5021637;28;20598;-76
2023/06/12 08:25:50;;;;;;;0.75;0.60;;;;;;;;;;5018814;28;20061;-77
2023/06/12 08:28:17;;;;;;;0.98;0.45;;;;;;;;;;5023881;28;20172;-77
2023/06/12 08:30:43;;;;;;;0.40;0.40;;;;;;;;;;5007989;28;20060;-76
2023/06/12 08:33:10;;;;;;;1.13;1.00;;;;;;;;;;5023409;28;20064;-77
2023/06/12 08:35:37;;;;;;;0.30;0.30;;;;;;;;;;5020564;28;20105;-76
2023/06/12 08:38:03;;;;;;;0.60;0.57;;;;;;;;;;5021793;28;20089;-77
2023/06/12 08:40:30;;;;;;;0.73;0.50;;;;;;;;;;5011153;28;20261;-77
2023/06/12 08:42:56;;;;;;;0.40;0.40;;;;;;;;;;5021719;28;20104;-76
2023/06/12 08:45:25;;;;;;;0.57;0.50;;;;;;;;;;5019803;28;20061;-77
2023/06/12 08:47:52;;;;;;;;;;;;;;;;;;5018237;28;20133;-77
2023/06/12 08:50:19;;;;;;;0.45;0.45;;;;;;;;;;5019759;28;44145;-76
2023/06/12 08:52:46;;;;;;;1.90;1.17;;;;;;;;;;5020519;28;20053;-76
2023/06/12 08:55:14;;;;;;;0.70;0.50;;;;;;;;;;5003841;28;20137;-76
2023/06/12 08:57:41;;;;;;;0.77;0.55;;;;;;;;;;5003711;28;20574;-77
2023/06/12 09:00:11;;;;;;;2.03;0.82;;;;;;;;;;5020529;28;20064;-75
2023/06/12 09:02:49;;;;;;;0.68;0.50;;;;;;;;;;5023002;28;20595;-76
2023/06/12 09:05:17;;;;;;;0.65;0.63;;;;;;;;;;5012850;28;20517;-76
2023/06/12 09:07:45;;;;;;;0.50;0.50;;;;;;;;;;5019211;28;20108;-76
2023/06/12 09:10:18;;;;;;;0.68;0.47;;;;;;;;;;5156247;27;20451;-76
2023/06/12 09:12:45;;;;;;;0.40;0.40;;;;;;;;;;5160871;27;20051;-76
2023/06/12 09:15:18;;;;;;;1.58;1.13;;;;;;;;;;5146676;27;20047;-76
2023/06/12 09:17:52;;;;;;;0.95;0.63;;;;;;;;;;5140147;27;20106;-76
2023/06/12 09:20:24;;;;;;;1.23;0.70;;;;;;;;;;5144497;27;20055;-77
2023/06/12 09:23:07;;;;;;;0.50;0.40;;;;;;;;;;5135710;27;20571;-77
2023/06/12 09:25:34;;;;;;;1.25;0.88;;;;;;;;;;5150883;27;20051;-76
2023/06/12 09:28:04;;;;;;;0.95;0.60;;;;;;;;;;5135437;27;20048;-76
2023/06/12 09:30:31;;;;;;;1.15;0.80;;;;;;;;;;5141406;27;20056;-76
2023/06/12 09:33:01;;;;;;;0.57;0.52;;;;;;;;;;5138689;27;20048;-77
2023/06/12 09:35:27;;;;;;;0.70;0.70;;;;;;;;;;5149415;27;20067;-76
2023/06/12 09:37:55;;;;;;;2.10;0.95;;;;;;;;;;5138735;27;20592;-76
2023/06/12 09:40:22;;;;;;;0.68;0.47;;;;;;;;;;5140331;27;20052;-77
2023/06/12 09:42:48;;;;;;;0.85;0.50;;;;;;;;;;5139945;27;20101;-76
2023/06/12 09:45:23;;;;;;;0.50;0.50;;;;;;;;;;5136998;27;20436;-76
2023/06/12 09:47:50;;;;;;;1.02;0.68;;;;;;;;;;5138106;27;20521;-76
2023/06/12 09:50:21;;;;;;;0.63;0.50;;;;;;;;;;5140006;27;20082;-76
2023/06/12 09:52:48;;;;;;;1.20;0.68;;;;;;;;;;5137386;27;20090;-76
2023/06/12 09:55:15;;;;;;;1.73;0.98;;;;;;;;;;5141229;27;20051;-76
2023/06/12 09:57:43;;;;;;;0.52;0.47;;;;;;;;;;5138891;27;20320;-76
2023/06/12 10:00:11;;;;;;;1.17;0.68;;;;;;;;;;5141003;27;20075;-76
2023/06/12 10:02:44;;;;;;;1.30;1.03;;;;;;;;;;5137654;27;20139;-77
2023/06/12 10:05:16;;;;;;;1.10;0.60;;;;;;;;;;5140016;27;20157;-77
2023/06/12 10:07:51;;;;;;;0.52;0.40;;;;;;;;;;5161244;27;20552;-76
2023/06/12 10:10:24;;;;;;;1.20;0.70;;;;;;;;;;5146180;27;20047;-76
2023/06/12 10:12:51;;;;;;;1.08;0.57;;;;;;;;;;5139588;27;20079;-77
2023/06/12 10:15:18;;;;;;;1.08;0.70;;;;;;;;;;5134746;27;20040;-77
2023/06/12 10:17:46;;;;;;;1.38;0.80;;;;;;;;;;5136853;27;20574;-77
2023/06/12 10:20:13;;;;;;;0.47;0.43;;;;;;;;;;5131290;27;20052;-76
2023/06/12 10:22:40;;;;;;;0.70;0.50;;;;;;;;;;5120593;27;20445;-77
2023/06/12 10:25:08;;;;;;;1.10;0.68;;;;;;;;;;5124836;27;20075;-76
2023/06/12 10:27:36;;;;;;;0.93;0.60;;;;;;;;;;5123385;27;20083;-77
2023/06/12 10:30:03;;;;;;;1.35;0.80;;;;;;;;;;5122873;27;20508;-77
2023/06/12 10:32:31;;;;;;;1.33;0.70;;;;;;;;;;5127712;27;20528;-76
2023/06/12 10:34:58;;;;;;;1.17;0.60;;;;;;;;;;5147288;27;20051;-77
2023/06/12 10:37:26;;;;;;;2.33;0.90;;;;;;;;;;5125297;27;20055;-76
2023/06/12 10:40:05;;;;;;;0.77;0.57;;;;;;;;;;5126135;27;20083;-76
2023/06/12 10:42:51;;;;;;;1.20;0.80;;;;;;;;;;5123415;27;20058;-76
2023/06/12 10:45:18;;;;;;;0.40;0.40;;;;;;;;;;5126222;27;20135;-76
2023/06/12 10:48:03;;;;;;;0.70;0.55;;;;;;;;;;5123036;27;20054;-76
2023/06/12 10:50:31;;;;;;;0.57;0.52;;;;;;;;;;5122328;27;20476;-76
2023/06/12 10:53:04;;;;;;;0.95;0.77;;;;;;;;;;5121136;27;20051;-76
2023/06/12 10:55:31;;;;;;;0.75;0.50;;;;;;;;;;5135716;27;20116;-77
2023/06/12 10:58:00;;;;;;;0.80;0.55;;;;;;;;;;5112119;27;20085;-76
2023/06/12 11:00:34;;;;;;;0.63;0.50;;;;;;;;;;5119705;27;20081;-76
2023/06/12 11:03:14;;;;;;;0.47;0.43;;;;;;;;;;5127266;27;20541;-75
2023/06/12 11:05:48;;;;;;;1.45;0.70;;;;;;;;;;5125724;27;20147;-75
2023/06/12 11:08:15;;;;;;;1.38;0.77;;;;;;;;;;5106933;27;20052;-76
2023/06/12 11:10:42;;;;;;;0.50;0.50;;;;;;;;;;5122835;27;20063;-76
2023/06/12 11:13:09;;;;;;;0.70;0.57;;;;;;;;;;5129853;27;20058;-76
2023/06/12 11:15:43;;;;;;;0.50;0.40;;;;;;;;;;5122793;27;20045;-76
2023/06/12 11:18:10;;;;;;;1.15;0.65;;;;;;;;;;5124498;27;20063;-76
2023/06/12 11:20:37;;;;;;;0.95;0.88;;;;;;;;;;5124801;27;20798;-76
2023/06/12 11:23:03;;;;;;;0.50;0.40;;;;;;;;;;5125504;27;20067;-76
2023/06/12 11:25:33;;;;;;;0.68;0.60;;;;;;;;;;5125065;27;20074;-76
2023/06/12 11:28:00;;;;;;;0.98;0.50;;;;;;;;;;5105808;27;20518;-76
2023/06/12 11:30:27;;;;;;;0.70;0.60;;;;;;;;;;5125150;27;20051;-76
2023/06/12 11:33:07;;;;;;;0.73;0.57;;;;;;;;;;5122856;27;20066;-76
2023/06/12 11:35:40;;;;;;;0.98;0.60;;;;;;;;;;5092832;27;20523;-76
2023/06/12 11:38:07;;;;;;;0.50;0.40;;;;;;;;;;5116377;27;20413;-76
2023/06/12 11:40:37;;;;;;;1.00;0.60;;;;;;;;;;5106538;27;20534;-76
2023/06/12 11:43:05;;;;;;;0.65;0.50;;;;;;;;;;5126301;27;20516;-76
2023/06/12 11:45:32;;;;;;;0.60;0.47;;;;;;;;;;5112829;27;20051;-76
2023/06/12 11:48:02;;;;;;;0.68;0.47;;;;;;;;;;5120537;27;20056;-76
2023/06/12 11:50:34;;;;;;;1.40;0.55;;;;;;;;;;5120066;27;20056;-76
2023/06/12 11:53:01;;;;;;;0.70;0.57;;;;;;;;;;5106150;27;20505;-76
2023/06/12 11:55:29;;;;;;;1.00;0.60;;;;;;;;;;5123540;27;20070;-76
2023/06/12 11:58:00;;;;;;;0.95;0.70;;;;;;;;;;5110856;27;20051;-76
2023/06/12 12:00:30;;;;;;;0.90;0.60;;;;;;;;;;5115310;27;20190;-76
2023/06/12 12:02:58;;;;;;;1.05;0.60;;;;;;;;;;5122063;27;20121;-76
2023/06/12 12:05:25;;;;;;;1.20;0.70;;;;;;;;;;5123697;27;20094;-76
2023/06/12 12:07:55;;;;;;;0.70;0.60;;;;;;;;;;5119085;27;20115;-76
2023/06/12 12:17:15;;;;;;;1.38;0.93;;;;;;;;;;5113505;27;20031;-76
2023/06/12 12:19:41;;;;;;;1.63;0.93;;;;;;;;;;5144848;27;20047;-76
2023/06/12 12:22:11;;;;;;;0.73;0.60;;;;;;;;;;5119213;27;20539;-76
2023/06/12 12:24:37;;;;;;;0.98;0.60;;;;;;;;;;5124249;27;20047;-77
2023/06/12 12:27:04;;;;;;;0.80;0.57;;;;;;;;;;5123971;27;20514;-76
2023/06/12 12:29:33;;;;;;;1.52;0.82;;;;;;;;;;5125235;27;20065;-76
2023/06/12 12:32:19;;;;;;;;;;;;;;;;;;5122784;27;20588;-74
2023/06/12 12:34:46;;;;;;;0.75;0.50;;;;;;;;;;5131331;27;46651;-75
2023/06/12 12:37:13;;;;;;;1.13;0.63;;;;;;;;;;5145871;27;20047;-74
2023/06/12 12:39:40;;;;;;;0.82;0.50;;;;;;;;;;5145320;27;20051;-74
2023/06/12 12:42:06;;;;;;;0.68;0.60;;;;;;;;;;5119413;27;20560;-76
2023/06/12 12:44:34;;;;;;;0.63;0.43;;;;;;;;;;5116354;27;20040;-76
2023/06/12 12:47:00;;;;;;;0.90;0.50;;;;;;;;;;5113001;27;20055;-76
2023/06/12 12:49:27;;;;;;;0.90;0.57;;;;;;;;;;5123489;27;20058;-76
2023/06/12 12:51:53;;;;;;;1.02;0.68;;;;;;;;;;5124547;27;20054;-76
2023/06/12 12:54:21;;;;;;;0.57;0.50;;;;;;;;;;5121038;27;20056;-76
2023/06/12 12:56:48;;;;;;;0.75;0.75;;;;;;;;;;5124241;27;20052;-76
2023/06/12 12:59:14;;;;;;;0.70;0.60;;;;;;;;;;5123991;27;20509;-76
2023/06/12 13:01:41;;;;;;;0.73;0.50;;;;;;;;;;5121972;27;20056;-76
2023/06/12 13:04:08;;;;;;;0.68;0.60;;;;;;;;;;5123269;27;20166;-76
2023/06/12 13:06:34;;;;;;;2.10;1.08;;;;;;;;;;5140628;27;20055;-76
2023/06/12 13:09:02;;;;;;;1.38;0.90;;;;;;;;;;5137627;27;20051;-76
2023/06/12 13:11:29;;;;;;;0.88;0.55;;;;;;;;;;5123329;27;20514;-75
2023/06/12 13:13:55;;;;;;;1.45;0.80;;;;;;;;;;5121442;27;20051;-76
2023/06/12 13:16:22;;;;;;;1.00;0.60;;;;;;;;;;5122432;27;20401;-76
2023/06/12 13:18:48;;;;;;;0.88;0.70;;;;;;;;;;5123612;27;20052;-76
2023/06/12 13:21:15;;;;;;;8.23;0.70;;;;;;;;;;5117982;27;20055;-76
2023/06/12 13:23:41;;;;;;;0.63;0.50;;;;;;;;;;5122102;27;20101;-76
2023/06/12 13:26:08;;;;;;;2.15;1.42;;;;;;;;;;5120134;27;20616;-76
2023/06/12 13:28:34;;;;;;;1.00;0.60;;;;;;;;;;5124424;27;20478;-76
2023/06/12 13:31:01;;;;;;;0.88;0.60;;;;;;;;;;5104764;27;20052;-76
2023/06/12 13:33:27;;;;;;;0.65;0.50;;;;;;;;;;5124935;27;20422;-76
2023/06/12 13:35:54;;;;;;;1.15;0.60;;;;;;;;;;5123806;27;20051;-76
2023/06/12 13:38:20;;;;;;;1.27;0.70;;;;;;;;;;5124380;27;20139;-76
2023/06/12 13:40:49;;;;;;;1.30;0.85;;;;;;;;;;5124768;27;20051;-76
2023/06/12 13:43:16;;;;;;;0.65;0.50;;;;;;;;;;5140428;27;20513;-76
2023/06/12 13:45:43;;;;;;;0.93;0.57;;;;;;;;;;5129298;27;20062;-76
2023/06/12 13:48:09;;;;;;;1.30;0.90;;;;;;;;;;5124045;27;20138;-76
2023/06/12 13:50:36;;;;;;;0.65;0.55;;;;;;;;;;5123231;27;20130;-75
2023/06/12 13:53:02;;;;;;;0.40;0.40;;;;;;;;;;5133022;27;20100;-76
2023/06/12 13:55:29;;;;;;;0.88;0.50;;;;;;;;;;5124754;27;20147;-76
2023/06/12 13:57:56;;;;;;;3.47;0.80;;;;;;;;;;5124242;27;20094;-75
2023/06/12 14:00:23;;;;;;;0.90;0.50;;;;;;;;;;5127130;27;20047;-75
2023/06/12 14:03:02;;;;;;;0.63;0.50;;;;;;;;;;5127544;27;20084;-76
2023/06/12 14:06:51;;;;;;;0.80;0.50;;;;;;;;;;5135710;27;20521;-76
2023/06/12 14:09:19;;;;;;;0.88;0.52;;;;;;;;;;5120418;27;20174;-76
2023/06/12 14:11:45;;;;;;;0.73;0.60;;;;;;;;;;5125931;27;20047;-76
2023/06/12 14:14:12;;;;;;;1.40;0.52;;;;;;;;;;5108925;27;20048;-76
2023/06/12 14:16:39;;;;;;;3.85;0.70;;;;;;;;;;5107715;27;20056;-76
2023/06/12 14:19:06;;;;;;;0.82;0.60;;;;;;;;;;5126585;27;20152;-75
2023/06/12 14:21:33;;;;;;;1.13;0.77;;;;;;;;;;5127228;27;20504;-77
2023/06/12 14:24:01;;;;;;;0.80;0.60;;;;;;;;;;5126320;27;20060;-76
2023/06/12 14:26:28;;;;;;;0.63;0.43;;;;;;;;;;5126533;27;20044;-76
2023/06/12 14:28:54;;;;;;;0.47;0.47;;;;;;;;;;5120378;27;20078;-76
2023/06/12 14:31:21;;;;;;;0.65;0.50;;;;;;;;;;5126478;27;20056;-77
2023/06/12 14:33:48;;;;;;;0.75;0.75;;;;;;;;;;5121557;27;20934;-77
2023/06/12 14:36:14;;;;;;;0.57;0.55;;;;;;;;;;5124145;27;20060;-76
2023/06/12 14:38:41;;;;;;;0.90;0.60;;;;;;;;;;5124916;27;20142;-76
2023/06/12 14:41:07;;;;;;;0.70;0.50;;;;;;;;;;5124000;27;20059;-76
2023/06/12 14:43:34;;;;;;;0.93;0.60;;;;;;;;;;5125589;27;20093;-77
2023/06/12 14:46:00;;;;;;;0.85;0.52;;;;;;;;;;5107905;27;20047;-77
2023/06/12 14:48:27;;;;;;;0.45;0.45;;;;;;;;;;5125528;27;20153;-77
2023/06/12 14:50:53;;;;;;;1.13;0.70;;;;;;;;;;5122713;27;20575;-76
2023/06/12 14:53:19;;;;;;;1.92;0.73;;;;;;;;;;5117816;27;20076;-76
2023/06/12 14:55:46;;;;;;;0.82;0.82;;;;;;;;;;5124509;27;20079;-76